createdAt,value
2022-10-08T00:01:02.109Z,8.19
2022-10-08T00:03:31.609Z,8.17
2022-10-08T00:06:04.756Z,8.17
2022-10-08T00:08:34.150Z,8.17
2022-10-08T00:11:04.048Z,8.16
2022-10-08T00:13:40.873Z,8.14
2022-10-08T00:16:26.621Z,8.14
2022-10-08T00:18:55.574Z,8.15
2022-10-08T00:21:25.571Z,8.16
2022-10-08T00:23:53.251Z,8.15
2022-10-08T00:26:26.630Z,8.14
2022-10-08T00:28:55.940Z,8.14
2022-10-08T00:31:43.783Z,8.15
2022-10-08T00:34:13.194Z,8.15
2022-10-08T00:36:41.033Z,8.17
2022-10-08T00:39:13.870Z,8.20
2022-10-08T00:41:41.398Z,8.24
2022-10-08T00:45:06.353Z,8.27
2022-10-08T00:47:32.912Z,8.31
2022-10-08T00:49:59.511Z,8.35
2022-10-08T00:52:29.037Z,8.41
2022-10-08T00:54:57.296Z,8.45
2022-10-08T00:57:24.332Z,8.46
2022-10-08T00:59:51.004Z,8.50
2022-10-08T01:02:19.270Z,8.55
2022-10-08T01:04:47.278Z,8.59
2022-10-08T01:07:23.769Z,8.62
2022-10-08T01:10:03.122Z,8.65
2022-10-08T01:12:47.243Z,8.70
2022-10-08T01:15:26.351Z,8.73
2022-10-08T01:18:01.781Z,8.76
2022-10-08T01:20:42.468Z,8.79
2022-10-08T01:23:27.473Z,8.82
2022-10-08T01:26:18.921Z,8.83
2022-10-08T01:28:56.381Z,8.83
2022-10-08T01:31:31.174Z,8.83
2022-10-08T01:34:03.083Z,8.85
2022-10-08T01:36:37.074Z,8.84
2022-10-08T01:39:09.191Z,8.85
2022-10-08T01:41:35.854Z,8.87
2022-10-08T01:44:08.859Z,8.88
2022-10-08T01:46:39.118Z,8.89
2022-10-08T01:49:11.503Z,8.91
2022-10-08T01:51:44.152Z,8.92
2022-10-08T01:54:16.367Z,8.92
2022-10-08T01:56:47.095Z,8.92
2022-10-08T01:59:22.967Z,8.93
2022-10-08T02:01:52.450Z,8.93
2022-10-08T02:04:37.073Z,8.95
2022-10-08T02:07:09.240Z,8.97
2022-10-08T02:09:40.785Z,8.98
2022-10-08T02:12:08.218Z,8.99
2022-10-08T02:14:40.195Z,8.98
2022-10-08T02:17:24.435Z,8.98
2022-10-08T02:20:14.643Z,8.99
2022-10-08T02:22:50.000Z,8.99
2022-10-08T02:25:30.630Z,9.00
2022-10-08T02:28:21.764Z,8.99
2022-10-08T02:31:04.706Z,8.99
2022-10-08T02:33:40.694Z,9.01
2022-10-08T02:36:10.029Z,9.01
2022-10-08T02:38:48.904Z,8.99
2022-10-08T02:41:17.041Z,8.99
2022-10-08T02:43:47.681Z,8.98
2022-10-08T02:46:17.813Z,8.96
2022-10-08T02:48:56.205Z,8.95
2022-10-08T02:51:24.847Z,8.92
2022-10-08T02:53:51.517Z,8.92
2022-10-08T02:56:25.329Z,8.91
2022-10-08T02:58:52.579Z,8.89
2022-10-08T03:01:26.534Z,8.88
2022-10-08T03:04:00.219Z,8.88
2022-10-08T03:06:28.477Z,8.89
2022-10-08T03:08:58.994Z,8.90
2022-10-08T03:11:27.361Z,8.89
2022-10-08T03:13:58.263Z,8.89
2022-10-08T03:16:32.181Z,8.91
2022-10-08T03:19:02.615Z,8.92
2022-10-08T03:21:30.402Z,8.91
2022-10-08T03:23:56.974Z,8.91
2022-10-08T03:26:23.479Z,8.92
2022-10-08T03:28:52.472Z,8.92
2022-10-08T03:31:19.316Z,8.92
2022-10-08T03:33:53.321Z,8.91
2022-10-08T03:36:21.600Z,8.92
2022-10-08T03:38:49.192Z,8.93
2022-10-08T03:41:16.781Z,8.94
2022-10-08T03:43:43.982Z,8.95
2022-10-08T03:46:12.297Z,8.98
2022-10-08T03:48:39.955Z,9.02
2022-10-08T03:51:10.825Z,9.03
2022-10-08T03:53:39.343Z,9.04
2022-10-08T03:56:08.904Z,9.04
2022-10-08T03:58:35.694Z,9.05
2022-10-08T04:01:05.338Z,9.09
2022-10-08T04:03:32.723Z,9.16
2022-10-08T04:05:59.575Z,9.21
2022-10-08T04:08:26.321Z,9.22
2022-10-08T04:10:53.628Z,9.24
2022-10-08T04:13:20.516Z,9.22
2022-10-08T04:15:48.276Z,9.23
2022-10-08T04:18:15.065Z,9.25
2022-10-08T04:20:42.224Z,9.25
2022-10-08T04:23:09.985Z,9.28
2022-10-08T04:25:37.089Z,9.28
2022-10-08T04:28:04.977Z,9.27
2022-10-08T04:30:32.525Z,9.32
2022-10-08T04:32:59.113Z,9.43
2022-10-08T04:35:26.216Z,9.56
2022-10-08T04:37:52.983Z,9.65
2022-10-08T04:40:19.537Z,9.67
2022-10-08T04:42:50.884Z,9.70
2022-10-08T04:45:17.575Z,9.70
2022-10-08T04:47:44.165Z,9.71
2022-10-08T04:50:10.703Z,9.80
2022-10-08T04:52:37.269Z,9.89
2022-10-08T04:55:04.594Z,9.98
2022-10-08T04:57:31.713Z,10.07
2022-10-08T05:00:17.784Z,10.20
2022-10-08T05:02:45.690Z,10.33
2022-10-08T05:05:12.562Z,10.40
2022-10-08T05:07:39.098Z,10.48
2022-10-08T05:10:06.147Z,10.56
2022-10-08T05:12:32.714Z,10.60
2022-10-08T05:14:59.358Z,10.63
2022-10-08T05:17:25.912Z,10.70
2022-10-08T05:19:52.818Z,10.78
2022-10-08T05:22:19.304Z,10.86
2022-10-08T05:24:45.881Z,10.92
2022-10-08T05:27:12.458Z,10.99
2022-10-08T05:29:38.989Z,11.04
2022-10-08T05:32:05.546Z,11.08
2022-10-08T05:34:32.071Z,11.13
2022-10-08T05:36:58.607Z,11.17
2022-10-08T05:39:25.239Z,11.15
2022-10-08T05:41:53.296Z,11.13
2022-10-08T05:44:20.354Z,11.11
2022-10-08T05:46:46.948Z,11.10
2022-10-08T05:49:20.321Z,11.04
2022-10-08T05:51:47.945Z,10.98
2022-10-08T05:54:14.622Z,10.93
2022-10-08T05:56:41.240Z,10.91
2022-10-08T05:59:17.077Z,10.93
2022-10-08T06:01:44.056Z,11.00
2022-10-08T06:04:11.349Z,11.03
2022-10-08T06:06:40.268Z,11.07
2022-10-08T06:09:08.650Z,11.08
2022-10-08T06:11:36.889Z,11.07
2022-10-08T06:14:06.054Z,11.04
2022-10-08T06:16:33.477Z,11.05
2022-10-08T06:19:02.169Z,11.14
2022-10-08T06:21:29.552Z,11.25
2022-10-08T06:23:58.452Z,11.32
2022-10-08T06:26:32.946Z,11.35
2022-10-08T06:29:01.896Z,11.40
2022-10-08T06:31:28.573Z,11.43
2022-10-08T06:33:58.561Z,11.45
2022-10-08T06:36:27.168Z,11.47
2022-10-08T06:39:00.823Z,11.48
2022-10-08T06:41:30.473Z,11.50
2022-10-08T06:43:57.348Z,11.52
2022-10-08T06:46:24.467Z,11.53
2022-10-08T06:48:51.119Z,11.54
2022-10-08T06:51:18.868Z,11.56
2022-10-08T06:53:51.450Z,11.58
2022-10-08T06:56:18.143Z,11.59
2022-10-08T06:58:45.333Z,11.61
2022-10-08T07:01:19.618Z,11.62
2022-10-08T07:04:06.660Z,11.66
2022-10-08T07:06:33.356Z,11.67
2022-10-08T07:09:01.456Z,11.69
2022-10-08T07:11:28.701Z,11.72
2022-10-08T07:13:56.295Z,11.72
2022-10-08T07:16:24.828Z,11.73
2022-10-08T07:18:52.995Z,11.74
2022-10-08T07:21:21.976Z,11.77
2022-10-08T07:23:49.704Z,11.83
2022-10-08T07:26:26.632Z,11.87
2022-10-08T07:28:59.213Z,11.95
2022-10-08T07:31:29.841Z,12.03
2022-10-08T07:34:01.218Z,12.14
2022-10-08T07:36:28.894Z,12.23
2022-10-08T07:38:57.126Z,12.32
2022-10-08T07:41:24.945Z,12.43
2022-10-08T07:43:53.690Z,12.48
2022-10-08T07:46:20.950Z,12.54
2022-10-08T07:48:47.583Z,12.58
2022-10-08T07:51:17.426Z,12.65
2022-10-08T07:53:44.845Z,12.71
2022-10-08T07:56:14.484Z,12.76
2022-10-08T07:58:42.074Z,12.79
2022-10-08T08:01:12.251Z,12.81
2022-10-08T08:03:38.820Z,12.85
2022-10-08T08:06:12.159Z,12.87
2022-10-08T08:08:40.892Z,12.84
2022-10-08T08:11:10.002Z,12.81
2022-10-08T08:13:37.951Z,12.79
2022-10-08T08:16:08.322Z,12.85
2022-10-08T08:18:37.774Z,12.95
2022-10-08T08:21:10.000Z,12.99
2022-10-08T08:23:40.121Z,13.07
2022-10-08T08:26:18.846Z,13.17
2022-10-08T08:28:45.548Z,13.25
2022-10-08T08:31:15.319Z,13.27
2022-10-08T08:33:43.181Z,13.24
2022-10-08T08:36:09.941Z,13.21
2022-10-08T08:38:39.953Z,13.21
2022-10-08T08:41:19.785Z,13.28
2022-10-08T08:43:47.924Z,13.28
2022-10-08T08:46:19.998Z,13.33
2022-10-08T08:48:46.888Z,13.31
2022-10-08T08:51:13.610Z,13.29
2022-10-08T08:53:40.211Z,13.30
2022-10-08T08:56:12.553Z,13.35
2022-10-08T08:58:58.530Z,13.41
2022-10-08T09:01:33.552Z,13.45
2022-10-08T09:04:26.588Z,13.48
2022-10-08T09:06:56.333Z,13.53
2022-10-08T09:09:31.298Z,13.42
2022-10-08T09:11:58.299Z,13.43
2022-10-08T09:14:37.064Z,13.53
2022-10-08T09:17:28.277Z,13.49
2022-10-08T09:19:55.358Z,13.39
2022-10-08T09:22:25.771Z,13.32
2022-10-08T09:25:06.444Z,13.26
2022-10-08T09:28:09.227Z,13.45
2022-10-08T09:30:45.036Z,13.64
2022-10-08T09:33:18.613Z,13.87
2022-10-08T09:35:48.930Z,14.05
2022-10-08T09:38:21.545Z,14.15
2022-10-08T09:41:17.458Z,14.32
2022-10-08T09:43:45.623Z,14.41
2022-10-08T09:46:29.854Z,14.51
2022-10-08T09:48:56.609Z,14.57
2022-10-08T09:51:23.695Z,14.66
2022-10-08T09:53:54.745Z,14.80
2022-10-08T09:56:27.643Z,14.80
2022-10-08T09:58:58.418Z,14.79
2022-10-08T10:01:25.690Z,14.86
2022-10-08T10:03:57.841Z,14.89
2022-10-08T10:06:27.194Z,14.87
2022-10-08T10:09:18.866Z,14.76
2022-10-08T10:11:59.169Z,14.66
2022-10-08T10:14:33.268Z,14.58
2022-10-08T10:17:10.441Z,14.55
2022-10-08T10:19:46.120Z,14.57
2022-10-08T10:22:19.292Z,14.67
2022-10-08T10:25:09.500Z,14.93
2022-10-08T10:27:42.257Z,14.91
2022-10-08T10:30:18.654Z,14.93
2022-10-08T10:33:12.972Z,14.85
2022-10-08T10:35:50.025Z,14.85
2022-10-08T10:38:24.019Z,14.88
2022-10-08T10:41:11.989Z,14.92
2022-10-08T10:43:53.629Z,15.29
2022-10-08T10:46:32.381Z,15.43
2022-10-08T10:49:00.089Z,15.46
2022-10-08T10:51:56.101Z,15.52
2022-10-08T10:54:37.901Z,15.54
2022-10-08T10:57:36.868Z,15.73
2022-10-08T11:00:09.775Z,15.80
2022-10-08T11:02:59.463Z,15.96
2022-10-08T11:05:30.314Z,16.12
2022-10-08T11:08:11.850Z,16.33
2022-10-08T11:11:00.767Z,16.20
2022-10-08T11:13:30.173Z,16.08
2022-10-08T11:16:04.914Z,16.07
2022-10-08T11:18:49.430Z,16.28
2022-10-08T11:21:21.927Z,16.39
2022-10-08T11:24:00.670Z,16.38
2022-10-08T11:26:37.141Z,16.35
2022-10-08T11:29:17.526Z,16.41
2022-10-08T11:31:51.826Z,16.52
2022-10-08T11:34:34.409Z,16.75
2022-10-08T11:37:29.341Z,16.81
2022-10-08T11:40:23.954Z,16.64
2022-10-08T11:43:07.165Z,16.49
2022-10-08T11:45:36.712Z,16.47
2022-10-08T11:48:29.534Z,16.47
2022-10-08T11:51:18.837Z,16.47
2022-10-08T11:54:04.284Z,16.50
2022-10-08T11:56:34.730Z,16.65
2022-10-08T11:59:10.270Z,16.93
2022-10-08T12:02:05.641Z,16.95
2022-10-08T12:04:36.233Z,16.88
2022-10-08T12:07:24.433Z,16.90
2022-10-08T12:10:31.477Z,17.05
2022-10-08T12:13:02.709Z,16.98
2022-10-08T12:15:33.135Z,16.87
2022-10-08T12:18:26.253Z,16.77
2022-10-08T12:21:20.365Z,16.88
2022-10-08T12:23:47.117Z,17.10
2022-10-08T12:26:15.750Z,17.24
2022-10-08T12:28:45.257Z,17.14
2022-10-08T12:31:30.911Z,16.68
2022-10-08T12:34:14.220Z,16.17
2022-10-08T12:36:46.916Z,15.63
2022-10-08T12:39:36.131Z,15.25
2022-10-08T12:42:14.636Z,14.72
2022-10-08T12:44:57.060Z,14.27
2022-10-08T12:48:08.907Z,13.79
2022-10-08T12:51:05.061Z,13.58
2022-10-08T12:53:33.095Z,13.49
2022-10-08T12:56:00.136Z,13.34
2022-10-08T12:58:31.738Z,13.22
2022-10-08T13:01:04.351Z,13.16
2022-10-08T13:03:31.203Z,13.19
2022-10-08T13:05:57.959Z,13.34
2022-10-08T13:08:35.191Z,13.59
2022-10-08T13:11:13.475Z,13.74
2022-10-08T13:13:40.052Z,13.83
2022-10-08T13:16:12.275Z,13.81
2022-10-08T13:18:44.498Z,13.75
2022-10-08T13:21:32.130Z,13.78
2022-10-08T13:24:20.503Z,13.84
2022-10-08T13:26:50.082Z,13.93
2022-10-08T13:29:22.669Z,14.05
2022-10-08T13:32:14.063Z,14.09
2022-10-08T13:34:40.571Z,14.10
2022-10-08T13:37:22.385Z,14.12
2022-10-08T13:39:54.901Z,14.16
2022-10-08T13:42:26.090Z,14.19
2022-10-08T13:44:52.920Z,14.25
2022-10-08T13:47:22.667Z,14.35
2022-10-08T13:49:49.674Z,14.41
2022-10-08T13:52:22.538Z,14.41
2022-10-08T13:54:53.750Z,14.43
2022-10-08T13:57:20.400Z,14.45
2022-10-08T13:59:47.138Z,14.52
2022-10-08T14:02:14.536Z,14.56
2022-10-08T14:04:41.516Z,14.52
2022-10-08T14:07:22.652Z,14.45
2022-10-08T14:09:49.527Z,14.39
2022-10-08T14:12:17.318Z,14.30
2022-10-08T14:14:43.821Z,14.27
2022-10-08T14:17:10.318Z,14.25
2022-10-08T14:19:36.903Z,14.25
2022-10-08T14:22:03.398Z,14.26
2022-10-08T14:24:29.908Z,14.40
2022-10-08T14:26:56.544Z,14.46
2022-10-08T14:29:23.115Z,14.51
2022-10-08T14:31:49.918Z,14.53
2022-10-08T14:34:16.597Z,14.53
2022-10-08T14:36:43.464Z,14.47
2022-10-08T14:39:10.366Z,14.48
2022-10-08T14:41:37.352Z,14.49
2022-10-08T14:44:03.930Z,14.51
2022-10-08T14:46:30.589Z,14.54
2022-10-08T14:48:57.562Z,14.64
2022-10-08T14:51:24.304Z,14.79
2022-10-08T14:53:52.212Z,14.79
2022-10-08T14:56:18.865Z,14.68
2022-10-08T14:58:45.432Z,14.59
2022-10-08T15:01:12.163Z,14.51
2022-10-08T15:03:38.802Z,14.41
2022-10-08T15:06:05.469Z,14.32
2022-10-08T15:08:32.126Z,14.26
2022-10-08T15:11:01.736Z,14.19
2022-10-08T15:13:29.018Z,14.15
2022-10-08T15:15:55.564Z,14.09
2022-10-08T15:18:22.016Z,14.03
2022-10-08T15:21:00.399Z,14.00
2022-10-08T15:23:27.615Z,13.94
2022-10-08T15:25:59.632Z,13.88
2022-10-08T15:28:27.942Z,13.81
2022-10-08T15:31:14.616Z,13.74
2022-10-08T15:33:49.393Z,13.70
2022-10-08T15:36:27.663Z,13.65
2022-10-08T15:38:59.868Z,13.61
2022-10-08T15:41:28.287Z,13.57
2022-10-08T15:43:54.843Z,13.54
2022-10-08T15:46:22.822Z,13.52
2022-10-08T15:48:54.948Z,13.49
2022-10-08T15:51:23.072Z,13.45
2022-10-08T15:53:50.333Z,13.42
2022-10-08T15:56:16.941Z,13.38
2022-10-08T15:58:50.964Z,13.35
2022-10-08T16:01:20.763Z,13.32
2022-10-08T16:03:49.414Z,13.28
2022-10-08T16:06:28.484Z,13.26
2022-10-08T16:08:58.269Z,13.23
2022-10-08T16:11:30.448Z,13.20
2022-10-08T16:14:06.505Z,13.14
2022-10-08T16:16:33.174Z,13.12
2022-10-08T16:19:04.137Z,13.10
2022-10-08T16:21:33.231Z,13.06
2022-10-08T16:24:00.845Z,13.00
2022-10-08T16:26:31.633Z,12.95
2022-10-08T16:29:00.586Z,12.92
2022-10-08T16:31:29.283Z,12.86
2022-10-08T16:33:58.039Z,12.81
2022-10-08T16:36:25.490Z,12.75
2022-10-08T16:38:52.502Z,12.71
2022-10-08T16:41:30.633Z,12.67
2022-10-08T16:43:59.869Z,12.62
2022-10-08T16:46:36.113Z,12.57
2022-10-08T16:49:06.446Z,12.50
2022-10-08T16:51:36.527Z,12.45
2022-10-08T16:54:06.460Z,12.40
2022-10-08T16:56:35.969Z,12.36
2022-10-08T16:59:08.016Z,12.32
2022-10-08T17:01:36.306Z,12.28
2022-10-08T17:04:05.680Z,12.21
2022-10-08T17:06:32.798Z,12.16
2022-10-08T17:09:08.901Z,12.07
2022-10-08T17:11:36.904Z,12.02
2022-10-08T17:14:04.221Z,11.99
2022-10-08T17:16:31.535Z,11.97
2022-10-08T17:19:00.068Z,11.95
2022-10-08T17:21:28.509Z,11.93
2022-10-08T17:23:57.592Z,11.87
2022-10-08T17:26:26.074Z,11.83
2022-10-08T17:28:52.784Z,11.79
2022-10-08T17:31:22.682Z,11.76
2022-10-08T17:33:50.036Z,11.73
2022-10-08T17:36:22.573Z,11.71
2022-10-08T17:38:51.651Z,11.65
2022-10-08T17:41:20.657Z,11.61
2022-10-08T17:43:48.442Z,11.59
2022-10-08T17:46:17.738Z,11.53
2022-10-08T17:48:45.329Z,11.50
2022-10-08T17:51:14.332Z,11.44
2022-10-08T17:53:42.709Z,11.39
2022-10-08T17:56:11.668Z,11.33
2022-10-08T17:58:38.960Z,11.28
2022-10-08T18:01:07.185Z,11.24
2022-10-08T18:03:34.348Z,11.20
2022-10-08T18:06:02.368Z,11.18
2022-10-08T18:08:29.228Z,11.16
2022-10-08T18:10:57.004Z,11.14
2022-10-08T18:13:23.596Z,11.12
2022-10-08T18:15:50.182Z,11.11
2022-10-08T18:18:16.993Z,11.07
2022-10-08T18:20:56.598Z,11.05
2022-10-08T18:23:24.138Z,11.03
2022-10-08T18:25:53.921Z,11.00
2022-10-08T18:28:21.907Z,10.96
2022-10-08T18:30:48.714Z,10.90
2022-10-08T18:33:15.985Z,10.85
2022-10-08T18:35:42.475Z,10.82
2022-10-08T18:38:08.954Z,10.79
2022-10-08T18:40:35.672Z,10.76
2022-10-08T18:43:02.313Z,10.73
2022-10-08T18:45:29.132Z,10.68
2022-10-08T18:47:55.706Z,10.66
2022-10-08T18:50:22.484Z,10.67
2022-10-08T18:52:49.507Z,10.64
2022-10-08T18:55:16.665Z,10.63
2022-10-08T18:57:43.455Z,10.60
2022-10-08T19:00:10.446Z,10.59
2022-10-08T19:02:37.270Z,10.57
2022-10-08T19:05:04.332Z,10.54
2022-10-08T19:07:30.993Z,10.49
2022-10-08T19:09:57.571Z,10.46
2022-10-08T19:12:24.462Z,10.43
2022-10-08T19:14:53.111Z,10.42
2022-10-08T19:17:20.019Z,10.38
2022-10-08T19:19:46.531Z,10.34
2022-10-08T19:22:13.044Z,10.30
2022-10-08T19:24:41.151Z,10.26
2022-10-08T19:27:08.501Z,10.20
2022-10-08T19:29:35.969Z,10.17
2022-10-08T19:32:03.167Z,10.13
2022-10-08T19:34:29.783Z,10.09
2022-10-08T19:36:56.765Z,10.06
2022-10-08T19:39:26.043Z,10.02
2022-10-08T19:41:53.101Z,10.01
2022-10-08T19:44:28.272Z,9.96
2022-10-08T19:46:55.029Z,9.94
2022-10-08T19:49:22.181Z,9.93
2022-10-08T19:51:48.765Z,9.91
2022-10-08T19:54:16.499Z,9.87
2022-10-08T19:56:43.053Z,9.83
2022-10-08T19:59:11.606Z,9.78
2022-10-08T20:01:39.284Z,9.75
2022-10-08T20:04:07.408Z,9.71
2022-10-08T20:06:38.533Z,9.67
2022-10-08T20:09:07.281Z,9.64
2022-10-08T20:11:33.961Z,9.62
2022-10-08T20:14:01.841Z,9.58
2022-10-08T20:16:34.310Z,9.54
2022-10-08T20:19:03.543Z,9.52
2022-10-08T20:21:37.251Z,9.51
2022-10-08T20:24:04.624Z,9.47
2022-10-08T20:26:33.078Z,9.46
2022-10-08T20:29:02.622Z,9.43
2022-10-08T20:31:32.477Z,9.39
2022-10-08T20:34:00.142Z,9.36
2022-10-08T20:36:27.478Z,9.32
2022-10-08T20:38:54.227Z,9.29
2022-10-08T20:41:21.119Z,9.27
2022-10-08T20:43:48.173Z,9.22
2022-10-08T20:46:15.909Z,9.18
2022-10-08T20:48:44.100Z,9.16
2022-10-08T20:51:13.852Z,9.13
2022-10-08T20:53:45.717Z,9.09
2022-10-08T20:56:12.683Z,9.06
2022-10-08T20:58:39.636Z,9.02
2022-10-08T21:01:28.423Z,8.99
2022-10-08T21:03:55.535Z,8.96
2022-10-08T21:06:36.794Z,8.92
2022-10-08T21:09:03.565Z,8.90
2022-10-08T21:11:31.108Z,8.87
2022-10-08T21:14:00.033Z,8.84
2022-10-08T21:16:32.678Z,8.82
2022-10-08T21:19:01.709Z,8.79
2022-10-08T21:21:29.809Z,8.76
2022-10-08T21:23:57.248Z,8.74
2022-10-08T21:26:29.030Z,8.71
2022-10-08T21:29:00.902Z,8.69
2022-10-08T21:31:30.557Z,8.67
2022-10-08T21:33:58.479Z,8.65
2022-10-08T21:36:29.352Z,8.63
2022-10-08T21:38:56.520Z,8.61
2022-10-08T21:41:24.695Z,8.58
2022-10-08T21:43:53.648Z,8.55
2022-10-08T21:46:26.372Z,8.54
2022-10-08T21:48:59.940Z,8.51
2022-10-08T21:51:27.496Z,8.49
2022-10-08T21:53:56.651Z,8.45
2022-10-08T21:56:25.467Z,8.46
2022-10-08T21:58:54.285Z,8.44
2022-10-08T22:01:23.806Z,8.42
2022-10-08T22:03:58.805Z,8.38
2022-10-08T22:06:26.876Z,8.36
2022-10-08T22:08:53.685Z,8.33
2022-10-08T22:11:20.834Z,8.32
2022-10-08T22:13:47.561Z,8.30
2022-10-08T22:16:15.936Z,8.29
2022-10-08T22:18:42.552Z,8.26
2022-10-08T22:21:14.858Z,8.24
2022-10-08T22:23:41.591Z,8.22
2022-10-08T22:26:11.792Z,8.19
2022-10-08T22:28:39.044Z,8.17
2022-10-08T22:31:08.320Z,8.15
2022-10-08T22:33:36.044Z,8.13
2022-10-08T22:36:14.163Z,8.10
2022-10-08T22:38:42.253Z,8.10
2022-10-08T22:41:11.963Z,8.07
2022-10-08T22:43:39.809Z,8.06
2022-10-08T22:46:10.070Z,8.03
2022-10-08T22:48:37.366Z,8.02
2022-10-08T22:51:10.969Z,7.99
2022-10-08T22:53:37.591Z,7.99
2022-10-08T22:56:06.459Z,7.97
2022-10-08T22:58:34.755Z,7.93
2022-10-08T23:01:05.563Z,7.91
2022-10-08T23:03:32.545Z,7.90
2022-10-08T23:06:17.873Z,7.88
2022-10-08T23:08:45.816Z,7.86
2022-10-08T23:11:13.219Z,7.85
2022-10-08T23:13:40.103Z,7.82
2022-10-08T23:16:11.506Z,7.81
2022-10-08T23:18:40.057Z,7.79
2022-10-08T23:21:15.942Z,7.76
2022-10-08T23:23:46.619Z,7.74
2022-10-08T23:26:14.344Z,7.73
2022-10-08T23:28:41.794Z,7.71
2022-10-08T23:31:10.115Z,7.69
2022-10-08T23:33:42.345Z,7.68
2022-10-08T23:36:10.949Z,7.67
2022-10-08T23:38:38.100Z,7.65
2022-10-08T23:41:07.357Z,7.62
2022-10-08T23:43:36.278Z,7.61
2022-10-08T23:46:04.622Z,7.59
2022-10-08T23:48:31.444Z,7.57
2022-10-08T23:50:58.051Z,7.55
2022-10-08T23:53:25.239Z,7.52
2022-10-08T23:55:51.868Z,7.50
2022-10-08T23:58:18.649Z,7.49
